sensor_id;sensor_type;location;lat;lon;timestamp;P1;durP1;ratioP1;P2;durP2;ratioP2
45338;SDS011;31071;51.478;5.710;2023-04-24T00:02:17;20.00;;;14.43;;
45338;SDS011;31071;51.478;5.710;2023-04-24T00:04:43;26.33;;;16.65;;
45338;SDS011;31071;51.478;5.710;2023-04-24T00:07:12;27.55;;;17.30;;
45338;SDS011;31071;51.478;5.710;2023-04-24T00:09:38;26.02;;;17.35;;
45338;SDS011;31071;51.478;5.710;2023-04-24T00:12:03;28.92;;;17.52;;
45338;SDS011;31071;51.478;5.710;2023-04-24T00:14:29;27.60;;;18.17;;
45338;SDS011;31071;51.478;5.710;2023-04-24T00:16:55;29.05;;;18.70;;
45338;SDS011;31071;51.478;5.710;2023-04-24T00:19:21;28.15;;;18.20;;
45338;SDS011;31071;51.478;5.710;2023-04-24T00:21:47;28.90;;;18.00;;
45338;SDS011;31071;51.478;5.710;2023-04-24T00:24:14;28.17;;;17.08;;
45338;SDS011;31071;51.478;5.710;2023-04-24T00:26:41;30.77;;;17.25;;
45338;SDS011;31071;51.478;5.710;2023-04-24T00:29:06;26.58;;;17.13;;
45338;SDS011;31071;51.478;5.710;2023-04-24T00:31:32;24.35;;;17.63;;
45338;SDS011;31071;51.478;5.710;2023-04-24T00:33:59;26.10;;;17.00;;
45338;SDS011;31071;51.478;5.710;2023-04-24T00:36:26;26.95;;;17.67;;
45338;SDS011;31071;51.478;5.710;2023-04-24T00:38:52;28.27;;;17.33;;
45338;SDS011;31071;51.478;5.710;2023-04-24T00:41:17;22.65;;;16.23;;
45338;SDS011;31071;51.478;5.710;2023-04-24T00:43:43;29.63;;;16.23;;
45338;SDS011;31071;51.478;5.710;2023-04-24T00:46:09;21.17;;;15.27;;
45338;SDS011;31071;51.478;5.710;2023-04-24T00:48:35;24.27;;;16.85;;
45338;SDS011;31071;51.478;5.710;2023-04-24T00:51:03;23.45;;;16.30;;
45338;SDS011;31071;51.478;5.710;2023-04-24T00:53:29;29.30;;;17.48;;
45338;SDS011;31071;51.478;5.710;2023-04-24T00:55:54;24.80;;;16.90;;
45338;SDS011;31071;51.478;5.710;2023-04-24T00:58:21;31.50;;;17.25;;
45338;SDS011;31071;51.478;5.710;2023-04-24T01:00:47;28.95;;;17.80;;
45338;SDS011;31071;51.478;5.710;2023-04-24T01:03:15;32.72;;;17.88;;
45338;SDS011;31071;51.478;5.710;2023-04-24T01:05:41;29.33;;;18.63;;
45338;SDS011;31071;51.478;5.710;2023-04-24T01:08:07;29.65;;;18.65;;
45338;SDS011;31071;51.478;5.710;2023-04-24T01:10:33;30.45;;;19.88;;
45338;SDS011;31071;51.478;5.710;2023-04-24T01:12:59;30.58;;;19.90;;
45338;SDS011;31071;51.478;5.710;2023-04-24T01:15:25;33.05;;;20.17;;
45338;SDS011;31071;51.478;5.710;2023-04-24T01:17:51;34.38;;;20.92;;
45338;SDS011;31071;51.478;5.710;2023-04-24T01:20:16;39.58;;;21.67;;
45338;SDS011;31071;51.478;5.710;2023-04-24T01:22:42;39.40;;;21.27;;
45338;SDS011;31071;51.478;5.710;2023-04-24T01:25:08;34.75;;;21.23;;
45338;SDS011;31071;51.478;5.710;2023-04-24T01:27:33;45.65;;;23.02;;
45338;SDS011;31071;51.478;5.710;2023-04-24T01:29:59;34.33;;;21.90;;
45338;SDS011;31071;51.478;5.710;2023-04-24T01:32:25;39.80;;;22.08;;
45338;SDS011;31071;51.478;5.710;2023-04-24T01:34:51;38.35;;;22.15;;
45338;SDS011;31071;51.478;5.710;2023-04-24T01:37:16;39.90;;;23.35;;
45338;SDS011;31071;51.478;5.710;2023-04-24T01:39:43;39.22;;;23.75;;
45338;SDS011;31071;51.478;5.710;2023-04-24T01:42:08;42.70;;;24.70;;
45338;SDS011;31071;51.478;5.710;2023-04-24T01:44:34;41.13;;;23.58;;
45338;SDS011;31071;51.478;5.710;2023-04-24T01:47:00;42.75;;;23.55;;
45338;SDS011;31071;51.478;5.710;2023-04-24T01:49:26;37.40;;;23.02;;
45338;SDS011;31071;51.478;5.710;2023-04-24T01:51:52;42.63;;;23.83;;
45338;SDS011;31071;51.478;5.710;2023-04-24T01:54:18;47.55;;;23.67;;
45338;SDS011;31071;51.478;5.710;2023-04-24T01:56:44;41.05;;;23.23;;
45338;SDS011;31071;51.478;5.710;2023-04-24T01:59:11;40.78;;;24.38;;
45338;SDS011;31071;51.478;5.710;2023-04-24T02:01:37;40.45;;;23.92;;
45338;SDS011;31071;51.478;5.710;2023-04-24T02:04:04;41.92;;;26.05;;
45338;SDS011;31071;51.478;5.710;2023-04-24T02:06:30;37.92;;;24.30;;
45338;SDS011;31071;51.478;5.710;2023-04-24T02:08:59;42.40;;;24.80;;
45338;SDS011;31071;51.478;5.710;2023-04-24T02:11:26;41.95;;;25.92;;
45338;SDS011;31071;51.478;5.710;2023-04-24T02:13:52;41.90;;;25.95;;
45338;SDS011;31071;51.478;5.710;2023-04-24T02:16:18;43.90;;;26.35;;
45338;SDS011;31071;51.478;5.710;2023-04-24T02:18:43;40.47;;;26.33;;
45338;SDS011;31071;51.478;5.710;2023-04-24T02:21:09;44.85;;;25.02;;
45338;SDS011;31071;51.478;5.710;2023-04-24T02:23:35;43.08;;;25.90;;
45338;SDS011;31071;51.478;5.710;2023-04-24T02:26:00;40.55;;;25.13;;
45338;SDS011;31071;51.478;5.710;2023-04-24T02:28:26;42.20;;;25.65;;
45338;SDS011;31071;51.478;5.710;2023-04-24T02:30:51;40.33;;;25.88;;
45338;SDS011;31071;51.478;5.710;2023-04-24T02:33:17;41.97;;;26.33;;
45338;SDS011;31071;51.478;5.710;2023-04-24T02:35:42;41.63;;;24.70;;
45338;SDS011;31071;51.478;5.710;2023-04-24T02:38:08;39.40;;;25.08;;
45338;SDS011;31071;51.478;5.710;2023-04-24T02:40:34;40.50;;;24.65;;
45338;SDS011;31071;51.478;5.710;2023-04-24T02:42:59;43.30;;;24.35;;
45338;SDS011;31071;51.478;5.710;2023-04-24T02:45:25;38.17;;;24.75;;
45338;SDS011;31071;51.478;5.710;2023-04-24T02:47:50;38.47;;;24.35;;
45338;SDS011;31071;51.478;5.710;2023-04-24T02:50:16;41.53;;;25.00;;
45338;SDS011;31071;51.478;5.710;2023-04-24T02:52:41;37.25;;;24.27;;
45338;SDS011;31071;51.478;5.710;2023-04-24T02:55:07;37.70;;;23.70;;
45338;SDS011;31071;51.478;5.710;2023-04-24T02:57:33;39.05;;;23.58;;
45338;SDS011;31071;51.478;5.710;2023-04-24T02:59:58;39.50;;;24.40;;
45338;SDS011;31071;51.478;5.710;2023-04-24T03:02:24;41.05;;;23.85;;
45338;SDS011;31071;51.478;5.710;2023-04-24T03:04:50;43.40;;;22.42;;
45338;SDS011;31071;51.478;5.710;2023-04-24T03:07:15;41.20;;;21.98;;
45338;SDS011;31071;51.478;5.710;2023-04-24T03:09:41;34.47;;;22.15;;
45338;SDS011;31071;51.478;5.710;2023-04-24T03:12:06;32.90;;;21.30;;
45338;SDS011;31071;51.478;5.710;2023-04-24T03:14:32;34.55;;;20.55;;
45338;SDS011;31071;51.478;5.710;2023-04-24T03:16:57;35.45;;;20.73;;
45338;SDS011;31071;51.478;5.710;2023-04-24T03:19:23;30.65;;;19.48;;
45338;SDS011;31071;51.478;5.710;2023-04-24T03:21:49;35.47;;;20.10;;
45338;SDS011;31071;51.478;5.710;2023-04-24T03:24:15;36.22;;;19.52;;
45338;SDS011;31071;51.478;5.710;2023-04-24T03:26:41;28.27;;;18.40;;
45338;SDS011;31071;51.478;5.710;2023-04-24T03:29:06;30.30;;;18.85;;
45338;SDS011;31071;51.478;5.710;2023-04-24T03:31:32;32.20;;;18.63;;
45338;SDS011;31071;51.478;5.710;2023-04-24T03:33:57;26.77;;;18.15;;
45338;SDS011;31071;51.478;5.710;2023-04-24T03:36:23;28.45;;;17.88;;
45338;SDS011;31071;51.478;5.710;2023-04-24T03:38:48;27.35;;;17.88;;
45338;SDS011;31071;51.478;5.710;2023-04-24T03:41:14;31.95;;;18.23;;
45338;SDS011;31071;51.478;5.710;2023-04-24T03:43:39;29.42;;;18.27;;
45338;SDS011;31071;51.478;5.710;2023-04-24T03:46:05;30.50;;;19.05;;
45338;SDS011;31071;51.478;5.710;2023-04-24T03:48:30;31.02;;;17.77;;
45338;SDS011;31071;51.478;5.710;2023-04-24T03:50:56;28.02;;;17.00;;
45338;SDS011;31071;51.478;5.710;2023-04-24T03:53:21;25.17;;;17.77;;
45338;SDS011;31071;51.478;5.710;2023-04-24T03:55:47;27.33;;;18.55;;
45338;SDS011;31071;51.478;5.710;2023-04-24T03:58:13;24.80;;;17.42;;
45338;SDS011;31071;51.478;5.710;2023-04-24T04:00:42;26.77;;;16.75;;
45338;SDS011;31071;51.478;5.710;2023-04-24T04:03:09;27.50;;;17.55;;
45338;SDS011;31071;51.478;5.710;2023-04-24T04:05:34;28.25;;;16.52;;
45338;SDS011;31071;51.478;5.710;2023-04-24T04:08:00;28.73;;;16.55;;
45338;SDS011;31071;51.478;5.710;2023-04-24T04:10:25;27.70;;;16.58;;
45338;SDS011;31071;51.478;5.710;2023-04-24T04:12:51;27.50;;;16.48;;
45338;SDS011;31071;51.478;5.710;2023-04-24T04:15:16;24.73;;;15.85;;
45338;SDS011;31071;51.478;5.710;2023-04-24T04:17:42;26.40;;;15.88;;
45338;SDS011;31071;51.478;5.710;2023-04-24T04:20:08;25.77;;;17.02;;
45338;SDS011;31071;51.478;5.710;2023-04-24T04:22:36;30.83;;;17.33;;
45338;SDS011;31071;51.478;5.710;2023-04-24T04:25:02;25.77;;;17.27;;
45338;SDS011;31071;51.478;5.710;2023-04-24T04:27:29;25.20;;;15.98;;
45338;SDS011;31071;51.478;5.710;2023-04-24T04:29:57;25.05;;;16.15;;
45338;SDS011;31071;51.478;5.710;2023-04-24T04:32:32;25.77;;;16.13;;
45338;SDS011;31071;51.478;5.710;2023-04-24T04:34:58;22.05;;;16.50;;
45338;SDS011;31071;51.478;5.710;2023-04-24T04:37:28;25.40;;;17.20;;
45338;SDS011;31071;51.478;5.710;2023-04-24T04:39:54;26.55;;;16.30;;
45338;SDS011;31071;51.478;5.710;2023-04-24T04:42:20;24.80;;;15.57;;
45338;SDS011;31071;51.478;5.710;2023-04-24T04:44:47;21.80;;;15.57;;
45338;SDS011;31071;51.478;5.710;2023-04-24T04:47:12;25.33;;;15.85;;
45338;SDS011;31071;51.478;5.710;2023-04-24T04:49:38;25.92;;;16.63;;
45338;SDS011;31071;51.478;5.710;2023-04-24T04:52:04;22.48;;;16.67;;
45338;SDS011;31071;51.478;5.710;2023-04-24T04:54:30;26.83;;;16.25;;
45338;SDS011;31071;51.478;5.710;2023-04-24T04:56:56;27.48;;;16.55;;
45338;SDS011;31071;51.478;5.710;2023-04-24T04:59:22;28.08;;;16.83;;
45338;SDS011;31071;51.478;5.710;2023-04-24T05:01:47;29.15;;;17.20;;
45338;SDS011;31071;51.478;5.710;2023-04-24T05:04:13;27.40;;;16.50;;
45338;SDS011;31071;51.478;5.710;2023-04-24T05:06:38;26.35;;;16.50;;
45338;SDS011;31071;51.478;5.710;2023-04-24T05:09:04;25.15;;;15.90;;
45338;SDS011;31071;51.478;5.710;2023-04-24T05:11:30;27.48;;;16.88;;
45338;SDS011;31071;51.478;5.710;2023-04-24T05:13:55;26.92;;;17.35;;
45338;SDS011;31071;51.478;5.710;2023-04-24T05:16:21;29.50;;;17.17;;
45338;SDS011;31071;51.478;5.710;2023-04-24T05:18:47;30.70;;;16.42;;
45338;SDS011;31071;51.478;5.710;2023-04-24T05:21:12;26.23;;;17.63;;
45338;SDS011;31071;51.478;5.710;2023-04-24T05:23:38;20.60;;;15.48;;
45338;SDS011;31071;51.478;5.710;2023-04-24T05:26:03;23.45;;;15.75;;
45338;SDS011;31071;51.478;5.710;2023-04-24T05:28:29;24.42;;;15.23;;
45338;SDS011;31071;51.478;5.710;2023-04-24T05:30:55;24.75;;;14.85;;
45338;SDS011;31071;51.478;5.710;2023-04-24T05:33:20;20.92;;;14.70;;
45338;SDS011;31071;51.478;5.710;2023-04-24T05:35:47;19.60;;;14.40;;
45338;SDS011;31071;51.478;5.710;2023-04-24T05:38:13;21.40;;;13.30;;
45338;SDS011;31071;51.478;5.710;2023-04-24T05:40:42;19.63;;;12.35;;
45338;SDS011;31071;51.478;5.710;2023-04-24T05:43:08;16.30;;;11.48;;
45338;SDS011;31071;51.478;5.710;2023-04-24T05:45:33;15.45;;;10.20;;
45338;SDS011;31071;51.478;5.710;2023-04-24T05:48:00;12.88;;;8.57;;
45338;SDS011;31071;51.478;5.710;2023-04-24T05:50:27;11.50;;;8.40;;
45338;SDS011;31071;51.478;5.710;2023-04-24T05:52:52;10.90;;;7.22;;
45338;SDS011;31071;51.478;5.710;2023-04-24T05:55:18;11.57;;;7.85;;
45338;SDS011;31071;51.478;5.710;2023-04-24T05:57:44;11.55;;;7.30;;
45338;SDS011;31071;51.478;5.710;2023-04-24T06:00:09;10.07;;;6.55;;
45338;SDS011;31071;51.478;5.710;2023-04-24T06:02:37;9.18;;;6.10;;
45338;SDS011;31071;51.478;5.710;2023-04-24T06:05:03;8.30;;;5.72;;
45338;SDS011;31071;51.478;5.710;2023-04-24T06:07:29;9.27;;;5.00;;
45338;SDS011;31071;51.478;5.710;2023-04-24T06:09:57;7.45;;;4.75;;
45338;SDS011;31071;51.478;5.710;2023-04-24T06:12:23;7.82;;;4.45;;
45338;SDS011;31071;51.478;5.710;2023-04-24T06:14:49;9.07;;;4.65;;
45338;SDS011;31071;51.478;5.710;2023-04-24T06:17:15;5.13;;;3.00;;
45338;SDS011;31071;51.478;5.710;2023-04-24T06:19:40;7.03;;;2.75;;
45338;SDS011;31071;51.478;5.710;2023-04-24T06:22:06;2.70;;;2.33;;
45338;SDS011;31071;51.478;5.710;2023-04-24T06:24:33;3.08;;;2.53;;
45338;SDS011;31071;51.478;5.710;2023-04-24T06:26:59;5.28;;;2.75;;
45338;SDS011;31071;51.478;5.710;2023-04-24T06:29:25;4.47;;;2.70;;
45338;SDS011;31071;51.478;5.710;2023-04-24T06:31:50;5.53;;;2.70;;
45338;SDS011;31071;51.478;5.710;2023-04-24T06:34:16;4.20;;;2.50;;
45338;SDS011;31071;51.478;5.710;2023-04-24T06:36:41;5.45;;;2.95;;
45338;SDS011;31071;51.478;5.710;2023-04-24T06:39:07;7.70;;;2.88;;
45338;SDS011;31071;51.478;5.710;2023-04-24T06:41:33;5.75;;;3.30;;
45338;SDS011;31071;51.478;5.710;2023-04-24T06:43:58;6.40;;;3.40;;
45338;SDS011;31071;51.478;5.710;2023-04-24T06:46:24;8.50;;;3.85;;
45338;SDS011;31071;51.478;5.710;2023-04-24T06:48:51;10.00;;;4.15;;
45338;SDS011;31071;51.478;5.710;2023-04-24T06:51:20;6.95;;;3.60;;
45338;SDS011;31071;51.478;5.710;2023-04-24T06:53:47;6.82;;;4.07;;
45338;SDS011;31071;51.478;5.710;2023-04-24T06:56:13;5.68;;;3.30;;
45338;SDS011;31071;51.478;5.710;2023-04-24T06:58:39;4.05;;;2.60;;
45338;SDS011;31071;51.478;5.710;2023-04-24T07:01:04;4.93;;;3.10;;
45338;SDS011;31071;51.478;5.710;2023-04-24T07:03:30;3.53;;;2.90;;
45338;SDS011;31071;51.478;5.710;2023-04-24T07:05:56;4.18;;;2.80;;
45338;SDS011;31071;51.478;5.710;2023-04-24T07:08:22;7.85;;;4.22;;
45338;SDS011;31071;51.478;5.710;2023-04-24T07:10:49;9.35;;;5.00;;
45338;SDS011;31071;51.478;5.710;2023-04-24T07:13:16;8.05;;;5.28;;
45338;SDS011;31071;51.478;5.710;2023-04-24T07:15:42;8.88;;;5.57;;
45338;SDS011;31071;51.478;5.710;2023-04-24T07:18:07;7.93;;;6.10;;
45338;SDS011;31071;51.478;5.710;2023-04-24T07:20:33;13.32;;;8.15;;
45338;SDS011;31071;51.478;5.710;2023-04-24T07:22:59;15.48;;;10.77;;
45338;SDS011;31071;51.478;5.710;2023-04-24T07:25:24;21.33;;;13.13;;
45338;SDS011;31071;51.478;5.710;2023-04-24T07:28:07;24.05;;;14.82;;
45338;SDS011;31071;51.478;5.710;2023-04-24T07:30:33;26.33;;;14.85;;
45338;SDS011;31071;51.478;5.710;2023-04-24T07:32:59;29.67;;;16.48;;
45338;SDS011;31071;51.478;5.710;2023-04-24T07:35:25;30.90;;;17.83;;
45338;SDS011;31071;51.478;5.710;2023-04-24T07:37:52;29.77;;;16.88;;
45338;SDS011;31071;51.478;5.710;2023-04-24T07:40:19;32.15;;;17.80;;
45338;SDS011;31071;51.478;5.710;2023-04-24T07:42:45;35.78;;;18.25;;
45338;SDS011;31071;51.478;5.710;2023-04-24T07:45:13;33.38;;;18.38;;
45338;SDS011;31071;51.478;5.710;2023-04-24T07:47:39;28.10;;;17.25;;
45338;SDS011;31071;51.478;5.710;2023-04-24T07:50:08;31.88;;;17.98;;
45338;SDS011;31071;51.478;5.710;2023-04-24T07:52:34;29.75;;;16.83;;
45338;SDS011;31071;51.478;5.710;2023-04-24T07:54:59;31.27;;;17.50;;
45338;SDS011;31071;51.478;5.710;2023-04-24T07:57:26;31.27;;;15.00;;
45338;SDS011;31071;51.478;5.710;2023-04-24T07:59:52;33.17;;;16.25;;
45338;SDS011;31071;51.478;5.710;2023-04-24T08:02:18;28.20;;;16.13;;
45338;SDS011;31071;51.478;5.710;2023-04-24T08:04:43;34.65;;;16.90;;
45338;SDS011;31071;51.478;5.710;2023-04-24T08:07:09;28.83;;;15.73;;
45338;SDS011;31071;51.478;5.710;2023-04-24T08:09:35;26.35;;;15.23;;
45338;SDS011;31071;51.478;5.710;2023-04-24T08:12:00;26.83;;;13.48;;
45338;SDS011;31071;51.478;5.710;2023-04-24T08:14:27;29.65;;;13.60;;
45338;SDS011;31071;51.478;5.710;2023-04-24T08:16:53;24.60;;;12.27;;
45338;SDS011;31071;51.478;5.710;2023-04-24T08:19:20;25.00;;;11.85;;
45338;SDS011;31071;51.478;5.710;2023-04-24T08:21:46;23.63;;;12.20;;
45338;SDS011;31071;51.478;5.710;2023-04-24T08:24:11;31.30;;;12.70;;
45338;SDS011;31071;51.478;5.710;2023-04-24T08:26:37;23.60;;;11.20;;
45338;SDS011;31071;51.478;5.710;2023-04-24T08:29:02;28.63;;;11.27;;
45338;SDS011;31071;51.478;5.710;2023-04-24T08:31:28;28.85;;;11.77;;
45338;SDS011;31071;51.478;5.710;2023-04-24T08:33:54;30.02;;;11.88;;
45338;SDS011;31071;51.478;5.710;2023-04-24T08:36:20;34.28;;;12.90;;
45338;SDS011;31071;51.478;5.710;2023-04-24T08:38:45;23.75;;;12.00;;
45338;SDS011;31071;51.478;5.710;2023-04-24T08:41:11;28.20;;;12.02;;
45338;SDS011;31071;51.478;5.710;2023-04-24T08:43:39;32.40;;;11.82;;
45338;SDS011;31071;51.478;5.710;2023-04-24T08:46:06;30.25;;;11.70;;
45338;SDS011;31071;51.478;5.710;2023-04-24T08:48:32;32.55;;;12.23;;
45338;SDS011;31071;51.478;5.710;2023-04-24T08:50:58;29.92;;;12.13;;
45338;SDS011;31071;51.478;5.710;2023-04-24T08:53:24;41.95;;;14.45;;
45338;SDS011;31071;51.478;5.710;2023-04-24T08:55:51;38.47;;;13.93;;
45338;SDS011;31071;51.478;5.710;2023-04-24T08:58:18;39.63;;;14.93;;
45338;SDS011;31071;51.478;5.710;2023-04-24T09:00:44;29.85;;;12.98;;
45338;SDS011;31071;51.478;5.710;2023-04-24T09:03:15;31.73;;;13.52;;
45338;SDS011;31071;51.478;5.710;2023-04-24T09:05:46;39.45;;;14.32;;
45338;SDS011;31071;51.478;5.710;2023-04-24T09:08:12;32.28;;;13.65;;
45338;SDS011;31071;51.478;5.710;2023-04-24T09:10:39;32.75;;;13.77;;
45338;SDS011;31071;51.478;5.710;2023-04-24T09:13:05;35.35;;;13.68;;
45338;SDS011;31071;51.478;5.710;2023-04-24T09:15:34;30.02;;;13.00;;
45338;SDS011;31071;51.478;5.710;2023-04-24T09:18:00;35.90;;;13.55;;
45338;SDS011;31071;51.478;5.710;2023-04-24T09:20:26;35.85;;;11.07;;
45338;SDS011;31071;51.478;5.710;2023-04-24T09:22:53;26.40;;;10.88;;
45338;SDS011;31071;51.478;5.710;2023-04-24T09:25:20;25.77;;;10.23;;
45338;SDS011;31071;51.478;5.710;2023-04-24T09:27:46;26.75;;;10.20;;
45338;SDS011;31071;51.478;5.710;2023-04-24T09:30:12;25.13;;;8.35;;
45338;SDS011;31071;51.478;5.710;2023-04-24T09:32:38;20.95;;;7.38;;
45338;SDS011;31071;51.478;5.710;2023-04-24T09:37:41;20.60;;;6.45;;
45338;SDS011;31071;51.478;5.710;2023-04-24T09:40:12;22.65;;;7.70;;
45338;SDS011;31071;51.478;5.710;2023-04-24T09:42:52;24.45;;;7.28;;
45338;SDS011;31071;51.478;5.710;2023-04-24T09:45:35;20.65;;;6.43;;
45338;SDS011;31071;51.478;5.710;2023-04-24T09:48:02;20.02;;;6.50;;
45338;SDS011;31071;51.478;5.710;2023-04-24T09:50:34;21.70;;;6.13;;
45338;SDS011;31071;51.478;5.710;2023-04-24T09:53:03;19.30;;;6.35;;
45338;SDS011;31071;51.478;5.710;2023-04-24T09:55:32;26.23;;;6.85;;
45338;SDS011;31071;51.478;5.710;2023-04-24T09:57:58;19.90;;;6.15;;
45338;SDS011;31071;51.478;5.710;2023-04-24T10:00:31;18.02;;;7.05;;
45338;SDS011;31071;51.478;5.710;2023-04-24T10:03:01;16.70;;;6.75;;
45338;SDS011;31071;51.478;5.710;2023-04-24T10:07:56;19.98;;;6.40;;
45338;SDS011;31071;51.478;5.710;2023-04-24T10:10:23;18.60;;;6.53;;
45338;SDS011;31071;51.478;5.710;2023-04-24T10:12:48;15.25;;;5.40;;
45338;SDS011;31071;51.478;5.710;2023-04-24T10:15:15;12.77;;;4.28;;
45338;SDS011;31071;51.478;5.710;2023-04-24T10:17:45;10.82;;;4.00;;
45338;SDS011;31071;51.478;5.710;2023-04-24T10:20:17;11.98;;;3.63;;
45338;SDS011;31071;51.478;5.710;2023-04-24T10:22:53;10.85;;;3.33;;
45338;SDS011;31071;51.478;5.710;2023-04-24T10:25:20;11.57;;;3.73;;
45338;SDS011;31071;51.478;5.710;2023-04-24T10:27:47;17.80;;;4.03;;
45338;SDS011;31071;51.478;5.710;2023-04-24T10:30:14;11.30;;;3.30;;
45338;SDS011;31071;51.478;5.710;2023-04-24T10:32:40;11.05;;;3.22;;
45338;SDS011;31071;51.478;5.710;2023-04-24T10:35:06;10.80;;;3.10;;
45338;SDS011;31071;51.478;5.710;2023-04-24T10:37:54;11.25;;;3.00;;
45338;SDS011;31071;51.478;5.710;2023-04-24T10:40:27;10.13;;;2.72;;
45338;SDS011;31071;51.478;5.710;2023-04-24T10:42:57;8.10;;;2.63;;
45338;SDS011;31071;51.478;5.710;2023-04-24T10:45:22;6.40;;;2.42;;
45338;SDS011;31071;51.478;5.710;2023-04-24T10:47:58;11.48;;;2.30;;
45338;SDS011;31071;51.478;5.710;2023-04-24T10:50:26;10.52;;;2.30;;
45338;SDS011;31071;51.478;5.710;2023-04-24T10:52:55;8.63;;;2.33;;
45338;SDS011;31071;51.478;5.710;2023-04-24T10:55:56;11.95;;;2.88;;
45338;SDS011;31071;51.478;5.710;2023-04-24T10:58:22;7.60;;;2.05;;
45338;SDS011;31071;51.478;5.710;2023-04-24T11:00:55;9.02;;;1.90;;
45338;SDS011;31071;51.478;5.710;2023-04-24T11:03:23;5.72;;;1.77;;
45338;SDS011;31071;51.478;5.710;2023-04-24T11:06:00;6.13;;;1.30;;
45338;SDS011;31071;51.478;5.710;2023-04-24T11:09:30;7.80;;;1.65;;
45338;SDS011;31071;51.478;5.710;2023-04-24T11:11:30;6.20;;;1.08;;
45338;SDS011;31071;51.478;5.710;2023-04-24T11:19:20;4.55;;;1.05;;
45338;SDS011;31071;51.478;5.710;2023-04-24T11:22:00;3.00;;;1.00;;
45338;SDS011;31071;51.478;5.710;2023-04-24T11:29:39;3.85;;;0.90;;
45338;SDS011;31071;51.478;5.710;2023-04-24T11:34:47;4.10;;;1.17;;
45338;SDS011;31071;51.478;5.710;2023-04-24T11:37:13;3.55;;;1.15;;
45338;SDS011;31071;51.478;5.710;2023-04-24T11:39:40;5.53;;;1.15;;
45338;SDS011;31071;51.478;5.710;2023-04-24T11:42:05;8.73;;;1.85;;
45338;SDS011;31071;51.478;5.710;2023-04-24T11:44:33;4.68;;;1.60;;
45338;SDS011;31071;51.478;5.710;2023-04-24T11:47:02;5.65;;;1.55;;
45338;SDS011;31071;51.478;5.710;2023-04-24T11:49:29;8.02;;;1.60;;
45338;SDS011;31071;51.478;5.710;2023-04-24T11:51:55;7.15;;;1.90;;
45338;SDS011;31071;51.478;5.710;2023-04-24T11:54:21;7.05;;;2.08;;
45338;SDS011;31071;51.478;5.710;2023-04-24T11:56:47;10.00;;;1.55;;
45338;SDS011;31071;51.478;5.710;2023-04-24T11:59:14;7.97;;;1.73;;
45338;SDS011;31071;51.478;5.710;2023-04-24T12:01:46;6.32;;;1.65;;
45338;SDS011;31071;51.478;5.710;2023-04-24T12:04:12;7.65;;;1.75;;
45338;SDS011;31071;51.478;5.710;2023-04-24T12:06:39;5.95;;;1.40;;
45338;SDS011;31071;51.478;5.710;2023-04-24T12:09:04;5.53;;;1.42;;
45338;SDS011;31071;51.478;5.710;2023-04-24T12:11:30;3.75;;;1.17;;
45338;SDS011;31071;51.478;5.710;2023-04-24T12:13:56;7.13;;;1.25;;
45338;SDS011;31071;51.478;5.710;2023-04-24T12:16:21;5.20;;;1.17;;
45338;SDS011;31071;51.478;5.710;2023-04-24T12:18:47;8.70;;;1.73;;
45338;SDS011;31071;51.478;5.710;2023-04-24T12:21:16;7.03;;;1.35;;
45338;SDS011;31071;51.478;5.710;2023-04-24T12:23:43;3.22;;;1.27;;
45338;SDS011;31071;51.478;5.710;2023-04-24T12:26:10;5.00;;;1.27;;
45338;SDS011;31071;51.478;5.710;2023-04-24T12:28:37;6.38;;;1.45;;
45338;SDS011;31071;51.478;5.710;2023-04-24T12:31:08;3.78;;;1.23;;
45338;SDS011;31071;51.478;5.710;2023-04-24T12:33:35;5.40;;;0.98;;
45338;SDS011;31071;51.478;5.710;2023-04-24T12:36:00;3.58;;;1.10;;
45338;SDS011;31071;51.478;5.710;2023-04-24T12:38:27;5.03;;;1.40;;
45338;SDS011;31071;51.478;5.710;2023-04-24T12:41:02;6.38;;;1.52;;
45338;SDS011;31071;51.478;5.710;2023-04-24T12:43:29;3.58;;;1.13;;
45338;SDS011;31071;51.478;5.710;2023-04-24T12:45:55;3.67;;;1.42;;
45338;SDS011;31071;51.478;5.710;2023-04-24T12:48:20;4.28;;;1.58;;
45338;SDS011;31071;51.478;5.710;2023-04-24T12:50:47;8.05;;;1.55;;
45338;SDS011;31071;51.478;5.710;2023-04-24T12:53:13;4.28;;;1.42;;
45338;SDS011;31071;51.478;5.710;2023-04-24T12:55:40;2.58;;;1.20;;
45338;SDS011;31071;51.478;5.710;2023-04-24T12:58:06;4.07;;;1.30;;
45338;SDS011;31071;51.478;5.710;2023-04-24T13:00:32;5.93;;;1.30;;
45338;SDS011;31071;51.478;5.710;2023-04-24T13:02:58;5.35;;;1.10;;
45338;SDS011;31071;51.478;5.710;2023-04-24T13:05:24;2.30;;;0.93;;
45338;SDS011;31071;51.478;5.710;2023-04-24T13:07:49;3.92;;;0.90;;
45338;SDS011;31071;51.478;5.710;2023-04-24T13:10:15;3.97;;;0.90;;
45338;SDS011;31071;51.478;5.710;2023-04-24T13:12:41;6.30;;;1.05;;
45338;SDS011;31071;51.478;5.710;2023-04-24T13:15:10;2.97;;;0.88;;
45338;SDS011;31071;51.478;5.710;2023-04-24T13:17:35;5.60;;;1.10;;
45338;SDS011;31071;51.478;5.710;2023-04-24T13:20:01;3.35;;;0.70;;
45338;SDS011;31071;51.478;5.710;2023-04-24T13:22:27;2.10;;;0.90;;
45338;SDS011;31071;51.478;5.710;2023-04-24T13:24:53;4.05;;;0.90;;
45338;SDS011;31071;51.478;5.710;2023-04-24T13:27:18;2.97;;;1.00;;
45338;SDS011;31071;51.478;5.710;2023-04-24T13:29:44;3.67;;;0.95;;
45338;SDS011;31071;51.478;5.710;2023-04-24T13:32:10;4.13;;;1.05;;
45338;SDS011;31071;51.478;5.710;2023-04-24T13:34:35;2.38;;;1.00;;
45338;SDS011;31071;51.478;5.710;2023-04-24T13:37:01;2.58;;;0.85;;
45338;SDS011;31071;51.478;5.710;2023-04-24T13:39:28;4.28;;;2.10;;
45338;SDS011;31071;51.478;5.710;2023-04-24T13:41:54;4.95;;;1.35;;
45338;SDS011;31071;51.478;5.710;2023-04-24T13:44:20;3.10;;;1.00;;
45338;SDS011;31071;51.478;5.710;2023-04-24T13:46:47;3.63;;;1.20;;
45338;SDS011;31071;51.478;5.710;2023-04-24T13:49:15;4.20;;;1.17;;
45338;SDS011;31071;51.478;5.710;2023-04-24T13:51:42;1.90;;;1.08;;
45338;SDS011;31071;51.478;5.710;2023-04-24T13:54:08;1.55;;;1.05;;
45338;SDS011;31071;51.478;5.710;2023-04-24T13:56:34;1.30;;;1.10;;
45338;SDS011;31071;51.478;5.710;2023-04-24T13:59:00;5.20;;;1.27;;
45338;SDS011;31071;51.478;5.710;2023-04-24T14:01:26;6.53;;;1.15;;
45338;SDS011;31071;51.478;5.710;2023-04-24T14:03:52;4.32;;;1.30;;
45338;SDS011;31071;51.478;5.710;2023-04-24T14:06:18;10.50;;;1.70;;
45338;SDS011;31071;51.478;5.710;2023-04-24T14:08:44;7.57;;;1.90;;
45338;SDS011;31071;51.478;5.710;2023-04-24T14:11:10;5.38;;;1.83;;
45338;SDS011;31071;51.478;5.710;2023-04-24T14:13:36;3.40;;;1.50;;
45338;SDS011;31071;51.478;5.710;2023-04-24T14:16:02;6.03;;;1.63;;
45338;SDS011;31071;51.478;5.710;2023-04-24T14:18:28;3.30;;;1.52;;
45338;SDS011;31071;51.478;5.710;2023-04-24T14:20:54;4.10;;;2.30;;
45338;SDS011;31071;51.478;5.710;2023-04-24T14:23:20;5.53;;;1.80;;
45338;SDS011;31071;51.478;5.710;2023-04-24T14:25:45;9.23;;;1.88;;
45338;SDS011;31071;51.478;5.710;2023-04-24T14:28:13;3.33;;;1.50;;
45338;SDS011;31071;51.478;5.710;2023-04-24T14:30:38;4.70;;;1.75;;
45338;SDS011;31071;51.478;5.710;2023-04-24T14:33:05;6.47;;;1.98;;
45338;SDS011;31071;51.478;5.710;2023-04-24T14:35:31;4.85;;;2.00;;
45338;SDS011;31071;51.478;5.710;2023-04-24T14:37:57;6.93;;;1.73;;
45338;SDS011;31071;51.478;5.710;2023-04-24T14:40:23;5.82;;;1.95;;
45338;SDS011;31071;51.478;5.710;2023-04-24T14:42:49;8.48;;;1.60;;
45338;SDS011;31071;51.478;5.710;2023-04-24T14:45:15;5.07;;;2.20;;
45338;SDS011;31071;51.478;5.710;2023-04-24T14:47:41;4.45;;;1.65;;